74P weather

Calvada Meadows Airport
Pahrump, Nevada, United States

Public forecast

Using degrees Fahrenheit for public forecast. Weather courtesy of forecast.io.

Closest aviation weather report (METAR) to Calvada Meadows Airport

Closest report is Desert Rock Airport, 21.0 nm (38.9 km) N. Retrieved 2019/10/18 06:53 UTC (38 minutes ago):

KDRA 180653Z AUTO 28005KT 10SM OVC110 18/M02 A2979 RMK AO2 PK WND 04027/0608 SLP047 T01781022

Closest aviation forecast (TAF) to Calvada Meadows Airport

Forecast is more than 12 hours old.

Closest forecast is Desert Rock Airport, 21.0 nm (38.9 km) N. Retrieved 2011/12/07 06:36 UTC (8 years ago):

TAF KDRA 070532Z 0706/0806 VRB04KT P6SM SKC